sensor_id;sensor_type;location;lat;lon;timestamp;temperature;humidity
52743;DHT22;55583;53.012;6.556;2023-07-24T00:00:19;16.00;99.90
52743;DHT22;55583;53.012;6.556;2023-07-24T00:02:45;16.00;99.90
52743;DHT22;55583;53.012;6.556;2023-07-24T00:05:11;15.90;99.90
52743;DHT22;55583;53.012;6.556;2023-07-24T00:07:37;15.90;99.90
52743;DHT22;55583;53.012;6.556;2023-07-24T00:10:03;15.90;99.90
52743;DHT22;55583;53.012;6.556;2023-07-24T00:12:29;15.80;99.90
52743;DHT22;55583;53.012;6.556;2023-07-24T00:14:55;15.80;99.90
52743;DHT22;55583;53.012;6.556;2023-07-24T00:17:20;15.80;99.90
52743;DHT22;55583;53.012;6.556;2023-07-24T00:19:46;15.70;99.90
52743;DHT22;55583;53.012;6.556;2023-07-24T00:22:11;15.70;99.90
52743;DHT22;55583;53.012;6.556;2023-07-24T00:24:37;15.70;99.90
52743;DHT22;55583;53.012;6.556;2023-07-24T00:27:03;15.60;99.90
52743;DHT22;55583;53.012;6.556;2023-07-24T00:29:28;15.60;99.90
52743;DHT22;55583;53.012;6.556;2023-07-24T00:31:54;15.60;99.90
52743;DHT22;55583;53.012;6.556;2023-07-24T00:34:20;15.50;99.90
52743;DHT22;55583;53.012;6.556;2023-07-24T00:36:46;15.50;99.90
52743;DHT22;55583;53.012;6.556;2023-07-24T00:39:14;15.50;99.90
52743;DHT22;55583;53.012;6.556;2023-07-24T00:41:39;15.40;99.90
52743;DHT22;55583;53.012;6.556;2023-07-24T00:44:05;15.40;99.90
52743;DHT22;55583;53.012;6.556;2023-07-24T00:46:31;15.30;99.90
52743;DHT22;55583;53.012;6.556;2023-07-24T00:48:58;15.40;99.90
52743;DHT22;55583;53.012;6.556;2023-07-24T00:51:26;15.40;99.90
52743;DHT22;55583;53.012;6.556;2023-07-24T00:53:57;15.40;99.90
52743;DHT22;55583;53.012;6.556;2023-07-24T00:56:25;15.40;99.90
52743;DHT22;55583;53.012;6.556;2023-07-24T00:58:52;15.30;99.90
52743;DHT22;55583;53.012;6.556;2023-07-24T01:01:18;15.40;99.90
52743;DHT22;55583;53.012;6.556;2023-07-24T01:03:44;15.40;99.90
52743;DHT22;55583;53.012;6.556;2023-07-24T01:06:10;15.50;99.90
52743;DHT22;55583;53.012;6.556;2023-07-24T01:08:36;15.50;99.90
52743;DHT22;55583;53.012;6.556;2023-07-24T01:11:12;15.60;99.90
52743;DHT22;55583;53.012;6.556;2023-07-24T01:13:44;15.60;99.90
52743;DHT22;55583;53.012;6.556;2023-07-24T01:16:18;15.70;99.90
52743;DHT22;55583;53.012;6.556;2023-07-24T01:18:45;15.70;99.90
52743;DHT22;55583;53.012;6.556;2023-07-24T01:21:12;15.70;99.90
52743;DHT22;55583;53.012;6.556;2023-07-24T01:26:08;15.80;99.90
52743;DHT22;55583;53.012;6.556;2023-07-24T01:28:35;15.90;99.90
52743;DHT22;55583;53.012;6.556;2023-07-24T01:31:00;15.90;99.90
52743;DHT22;55583;53.012;6.556;2023-07-24T01:33:26;15.90;99.90
52743;DHT22;55583;53.012;6.556;2023-07-24T01:35:58;16.00;99.90
52743;DHT22;55583;53.012;6.556;2023-07-24T01:38:25;16.00;99.90
52743;DHT22;55583;53.012;6.556;2023-07-24T01:40:54;16.00;99.90
52743;DHT22;55583;53.012;6.556;2023-07-24T01:43:22;16.10;99.90
52743;DHT22;55583;53.012;6.556;2023-07-24T01:45:48;16.10;99.90
52743;DHT22;55583;53.012;6.556;2023-07-24T01:48:13;16.10;99.90
52743;DHT22;55583;53.012;6.556;2023-07-24T01:50:39;16.10;99.90
52743;DHT22;55583;53.012;6.556;2023-07-24T01:53:05;16.00;99.90
52743;DHT22;55583;53.012;6.556;2023-07-24T01:55:30;16.00;99.90
52743;DHT22;55583;53.012;6.556;2023-07-24T01:57:56;16.00;99.90
52743;DHT22;55583;53.012;6.556;2023-07-24T02:00:22;16.00;99.90
52743;DHT22;55583;53.012;6.556;2023-07-24T02:02:47;16.00;99.90
52743;DHT22;55583;53.012;6.556;2023-07-24T02:05:13;15.90;99.90
52743;DHT22;55583;53.012;6.556;2023-07-24T02:07:39;15.90;99.90
52743;DHT22;55583;53.012;6.556;2023-07-24T02:10:04;15.90;99.90
52743;DHT22;55583;53.012;6.556;2023-07-24T02:12:30;15.90;99.90
52743;DHT22;55583;53.012;6.556;2023-07-24T02:14:56;15.90;99.90
52743;DHT22;55583;53.012;6.556;2023-07-24T02:17:23;15.80;99.90
52743;DHT22;55583;53.012;6.556;2023-07-24T02:19:49;15.80;99.90
52743;DHT22;55583;53.012;6.556;2023-07-24T02:22:15;15.80;99.90
52743;DHT22;55583;53.012;6.556;2023-07-24T02:24:41;15.80;99.90
52743;DHT22;55583;53.012;6.556;2023-07-24T02:27:06;15.80;99.90
52743;DHT22;55583;53.012;6.556;2023-07-24T02:29:33;15.70;99.90
52743;DHT22;55583;53.012;6.556;2023-07-24T02:31:59;15.70;99.90
52743;DHT22;55583;53.012;6.556;2023-07-24T02:34:24;15.70;99.90
52743;DHT22;55583;53.012;6.556;2023-07-24T02:36:52;15.70;99.90
52743;DHT22;55583;53.012;6.556;2023-07-24T02:39:19;15.70;99.90
52743;DHT22;55583;53.012;6.556;2023-07-24T02:41:45;15.70;99.90
52743;DHT22;55583;53.012;6.556;2023-07-24T02:44:11;15.70;99.90
52743;DHT22;55583;53.012;6.556;2023-07-24T02:46:37;15.70;99.90
52743;DHT22;55583;53.012;6.556;2023-07-24T02:49:02;15.70;99.90
52743;DHT22;55583;53.012;6.556;2023-07-24T02:51:28;15.60;99.90
52743;DHT22;55583;53.012;6.556;2023-07-24T02:53:54;15.60;99.90
52743;DHT22;55583;53.012;6.556;2023-07-24T02:56:20;15.60;99.90
52743;DHT22;55583;53.012;6.556;2023-07-24T02:58:46;15.60;99.90
52743;DHT22;55583;53.012;6.556;2023-07-24T03:01:12;15.60;99.90
52743;DHT22;55583;53.012;6.556;2023-07-24T03:03:40;15.60;99.90
52743;DHT22;55583;53.012;6.556;2023-07-24T03:06:06;15.60;99.90
52743;DHT22;55583;53.012;6.556;2023-07-24T03:08:32;15.60;99.90
52743;DHT22;55583;53.012;6.556;2023-07-24T03:10:59;15.60;99.90
52743;DHT22;55583;53.012;6.556;2023-07-24T03:13:24;15.60;99.90
52743;DHT22;55583;53.012;6.556;2023-07-24T03:15:55;15.60;99.90
52743;DHT22;55583;53.012;6.556;2023-07-24T03:18:21;15.60;99.90
52743;DHT22;55583;53.012;6.556;2023-07-24T03:20:46;15.60;99.90
52743;DHT22;55583;53.012;6.556;2023-07-24T03:23:12;15.70;99.90
52743;DHT22;55583;53.012;6.556;2023-07-24T03:25:38;15.70;99.90
52743;DHT22;55583;53.012;6.556;2023-07-24T03:28:03;15.70;99.90
52743;DHT22;55583;53.012;6.556;2023-07-24T03:30:29;15.70;99.90
52743;DHT22;55583;53.012;6.556;2023-07-24T03:32:55;15.70;99.90
52743;DHT22;55583;53.012;6.556;2023-07-24T03:35:21;15.70;99.90
52743;DHT22;55583;53.012;6.556;2023-07-24T03:37:46;15.70;99.90
52743;DHT22;55583;53.012;6.556;2023-07-24T03:40:12;15.90;99.90
52743;DHT22;55583;53.012;6.556;2023-07-24T03:42:37;15.80;99.90
52743;DHT22;55583;53.012;6.556;2023-07-24T03:45:03;15.80;99.90
52743;DHT22;55583;53.012;6.556;2023-07-24T03:47:29;15.80;99.90
52743;DHT22;55583;53.012;6.556;2023-07-24T03:49:55;15.90;99.90
52743;DHT22;55583;53.012;6.556;2023-07-24T03:52:21;16.00;99.90
52743;DHT22;55583;53.012;6.556;2023-07-24T03:54:46;16.00;99.90
52743;DHT22;55583;53.012;6.556;2023-07-24T03:57:12;16.00;99.90
52743;DHT22;55583;53.012;6.556;2023-07-24T03:59:38;16.00;99.90
52743;DHT22;55583;53.012;6.556;2023-07-24T04:02:04;16.00;99.90
52743;DHT22;55583;53.012;6.556;2023-07-24T04:04:29;16.10;99.90
52743;DHT22;55583;53.012;6.556;2023-07-24T04:06:55;16.10;99.90
52743;DHT22;55583;53.012;6.556;2023-07-24T04:09:21;16.10;99.90
52743;DHT22;55583;53.012;6.556;2023-07-24T04:11:46;16.10;99.90
52743;DHT22;55583;53.012;6.556;2023-07-24T04:14:12;16.20;99.90
52743;DHT22;55583;53.012;6.556;2023-07-24T04:16:37;16.10;99.90
52743;DHT22;55583;53.012;6.556;2023-07-24T04:19:03;16.10;99.90
52743;DHT22;55583;53.012;6.556;2023-07-24T04:21:29;16.10;99.90
52743;DHT22;55583;53.012;6.556;2023-07-24T04:23:54;16.10;99.90
52743;DHT22;55583;53.012;6.556;2023-07-24T04:26:20;16.00;99.90
52743;DHT22;55583;53.012;6.556;2023-07-24T04:28:46;16.10;99.90
52743;DHT22;55583;53.012;6.556;2023-07-24T04:31:11;16.10;99.90
52743;DHT22;55583;53.012;6.556;2023-07-24T04:33:38;16.00;99.90
52743;DHT22;55583;53.012;6.556;2023-07-24T04:36:03;16.00;99.90
52743;DHT22;55583;53.012;6.556;2023-07-24T04:38:29;16.00;99.90
52743;DHT22;55583;53.012;6.556;2023-07-24T04:40:55;16.00;99.90
52743;DHT22;55583;53.012;6.556;2023-07-24T04:43:20;16.10;99.90
52743;DHT22;55583;53.012;6.556;2023-07-24T04:45:46;16.10;99.90
52743;DHT22;55583;53.012;6.556;2023-07-24T04:48:12;16.10;99.90
52743;DHT22;55583;53.012;6.556;2023-07-24T04:50:37;16.10;99.90
52743;DHT22;55583;53.012;6.556;2023-07-24T04:53:03;16.10;99.90
52743;DHT22;55583;53.012;6.556;2023-07-24T04:55:29;16.10;99.90
52743;DHT22;55583;53.012;6.556;2023-07-24T04:57:54;16.10;99.90
52743;DHT22;55583;53.012;6.556;2023-07-24T05:00:20;16.10;99.90
52743;DHT22;55583;53.012;6.556;2023-07-24T05:02:45;16.10;99.90
52743;DHT22;55583;53.012;6.556;2023-07-24T05:05:11;16.20;99.90
52743;DHT22;55583;53.012;6.556;2023-07-24T05:07:37;16.20;99.90
52743;DHT22;55583;53.012;6.556;2023-07-24T05:10:02;16.20;99.90
52743;DHT22;55583;53.012;6.556;2023-07-24T05:12:28;16.30;99.90
52743;DHT22;55583;53.012;6.556;2023-07-24T05:14:54;16.30;99.90
52743;DHT22;55583;53.012;6.556;2023-07-24T05:17:19;16.30;99.90
52743;DHT22;55583;53.012;6.556;2023-07-24T05:19:45;16.30;99.90
52743;DHT22;55583;53.012;6.556;2023-07-24T05:22:11;16.40;99.90
52743;DHT22;55583;53.012;6.556;2023-07-24T05:24:37;16.40;99.90
52743;DHT22;55583;53.012;6.556;2023-07-24T05:27:04;16.40;99.90
52743;DHT22;55583;53.012;6.556;2023-07-24T05:29:30;16.50;99.90
52743;DHT22;55583;53.012;6.556;2023-07-24T05:31:55;16.50;99.90
52743;DHT22;55583;53.012;6.556;2023-07-24T05:34:21;16.60;99.90
52743;DHT22;55583;53.012;6.556;2023-07-24T05:36:47;16.70;99.90
52743;DHT22;55583;53.012;6.556;2023-07-24T05:39:12;16.70;99.90
52743;DHT22;55583;53.012;6.556;2023-07-24T05:41:38;16.80;99.90
52743;DHT22;55583;53.012;6.556;2023-07-24T05:44:04;16.80;99.90
52743;DHT22;55583;53.012;6.556;2023-07-24T05:46:29;16.80;99.90
52743;DHT22;55583;53.012;6.556;2023-07-24T05:48:55;16.90;99.90
52743;DHT22;55583;53.012;6.556;2023-07-24T05:51:22;16.90;99.90
52743;DHT22;55583;53.012;6.556;2023-07-24T05:53:47;17.00;99.90
52743;DHT22;55583;53.012;6.556;2023-07-24T05:56:13;17.00;99.90
52743;DHT22;55583;53.012;6.556;2023-07-24T05:58:39;17.10;99.90
52743;DHT22;55583;53.012;6.556;2023-07-24T06:01:04;17.10;99.90
52743;DHT22;55583;53.012;6.556;2023-07-24T06:03:33;17.10;99.90
52743;DHT22;55583;53.012;6.556;2023-07-24T06:05:58;17.10;99.90
52743;DHT22;55583;53.012;6.556;2023-07-24T06:08:24;17.10;99.90
52743;DHT22;55583;53.012;6.556;2023-07-24T06:10:50;17.10;99.90
52743;DHT22;55583;53.012;6.556;2023-07-24T06:13:16;17.10;99.90
52743;DHT22;55583;53.012;6.556;2023-07-24T06:15:42;17.20;99.90
52743;DHT22;55583;53.012;6.556;2023-07-24T06:18:08;17.10;99.90
52743;DHT22;55583;53.012;6.556;2023-07-24T06:20:34;17.20;99.90
52743;DHT22;55583;53.012;6.556;2023-07-24T06:23:00;17.30;99.90
52743;DHT22;55583;53.012;6.556;2023-07-24T06:25:25;17.40;99.90
52743;DHT22;55583;53.012;6.556;2023-07-24T06:27:51;17.50;99.90
52743;DHT22;55583;53.012;6.556;2023-07-24T06:30:17;17.50;99.90
52743;DHT22;55583;53.012;6.556;2023-07-24T06:32:42;17.60;99.90
52743;DHT22;55583;53.012;6.556;2023-07-24T06:35:08;17.70;99.90
52743;DHT22;55583;53.012;6.556;2023-07-24T06:37:34;17.60;99.90
52743;DHT22;55583;53.012;6.556;2023-07-24T06:40:00;17.80;99.90
52743;DHT22;55583;53.012;6.556;2023-07-24T06:42:26;17.80;99.90
52743;DHT22;55583;53.012;6.556;2023-07-24T06:44:52;17.90;99.90
52743;DHT22;55583;53.012;6.556;2023-07-24T06:47:17;17.90;99.90
52743;DHT22;55583;53.012;6.556;2023-07-24T06:49:43;17.90;99.90
52743;DHT22;55583;53.012;6.556;2023-07-24T06:52:08;18.00;99.90
52743;DHT22;55583;53.012;6.556;2023-07-24T06:54:34;18.10;99.90
52743;DHT22;55583;53.012;6.556;2023-07-24T06:57:00;18.10;99.90
52743;DHT22;55583;53.012;6.556;2023-07-24T06:59:25;18.30;99.90
52743;DHT22;55583;53.012;6.556;2023-07-24T07:01:51;18.30;99.90
52743;DHT22;55583;53.012;6.556;2023-07-24T07:04:17;18.50;99.90
52743;DHT22;55583;53.012;6.556;2023-07-24T07:06:42;18.60;99.90
52743;DHT22;55583;53.012;6.556;2023-07-24T07:09:08;18.70;99.90
52743;DHT22;55583;53.012;6.556;2023-07-24T07:11:33;18.80;99.90
52743;DHT22;55583;53.012;6.556;2023-07-24T07:13:59;19.00;99.90
52743;DHT22;55583;53.012;6.556;2023-07-24T07:16:25;19.00;99.90
52743;DHT22;55583;53.012;6.556;2023-07-24T07:18:50;19.00;99.90
52743;DHT22;55583;53.012;6.556;2023-07-24T07:21:16;19.10;99.90
52743;DHT22;55583;53.012;6.556;2023-07-24T07:23:41;19.10;99.90
52743;DHT22;55583;53.012;6.556;2023-07-24T07:26:07;19.20;99.90
52743;DHT22;55583;53.012;6.556;2023-07-24T07:28:33;19.40;99.90
52743;DHT22;55583;53.012;6.556;2023-07-24T07:30:58;19.50;99.90
52743;DHT22;55583;53.012;6.556;2023-07-24T07:33:24;19.60;99.90
52743;DHT22;55583;53.012;6.556;2023-07-24T07:35:50;19.70;99.90
52743;DHT22;55583;53.012;6.556;2023-07-24T07:38:16;19.70;99.90
52743;DHT22;55583;53.012;6.556;2023-07-24T07:40:41;19.80;99.90
52743;DHT22;55583;53.012;6.556;2023-07-24T07:43:07;19.80;99.90
52743;DHT22;55583;53.012;6.556;2023-07-24T07:45:33;19.50;99.90
52743;DHT22;55583;53.012;6.556;2023-07-24T07:47:59;19.80;99.90
52743;DHT22;55583;53.012;6.556;2023-07-24T07:50:24;19.80;99.90
52743;DHT22;55583;53.012;6.556;2023-07-24T07:52:51;19.80;99.90
52743;DHT22;55583;53.012;6.556;2023-07-24T07:55:20;19.90;99.90
52743;DHT22;55583;53.012;6.556;2023-07-24T07:57:46;19.90;99.90
52743;DHT22;55583;53.012;6.556;2023-07-24T08:00:12;19.80;99.90
52743;DHT22;55583;53.012;6.556;2023-07-24T08:02:38;19.80;99.90
52743;DHT22;55583;53.012;6.556;2023-07-24T08:05:09;19.90;99.90
52743;DHT22;55583;53.012;6.556;2023-07-24T08:07:35;19.90;99.90
52743;DHT22;55583;53.012;6.556;2023-07-24T08:10:01;20.00;99.90
52743;DHT22;55583;53.012;6.556;2023-07-24T08:12:27;20.00;99.90
52743;DHT22;55583;53.012;6.556;2023-07-24T08:14:52;20.10;99.90
52743;DHT22;55583;53.012;6.556;2023-07-24T08:17:18;20.10;99.90
52743;DHT22;55583;53.012;6.556;2023-07-24T08:19:45;20.10;99.90
52743;DHT22;55583;53.012;6.556;2023-07-24T08:22:10;20.20;99.90
52743;DHT22;55583;53.012;6.556;2023-07-24T08:24:36;20.30;99.90
52743;DHT22;55583;53.012;6.556;2023-07-24T08:27:02;20.40;99.90
52743;DHT22;55583;53.012;6.556;2023-07-24T08:29:28;20.30;99.90
52743;DHT22;55583;53.012;6.556;2023-07-24T08:31:54;20.30;99.90
52743;DHT22;55583;53.012;6.556;2023-07-24T08:34:20;20.40;99.90
52743;DHT22;55583;53.012;6.556;2023-07-24T08:36:45;20.40;99.90
52743;DHT22;55583;53.012;6.556;2023-07-24T08:39:11;20.30;99.90
52743;DHT22;55583;53.012;6.556;2023-07-24T08:41:37;20.30;99.90
52743;DHT22;55583;53.012;6.556;2023-07-24T08:44:07;20.30;99.90
52743;DHT22;55583;53.012;6.556;2023-07-24T08:46:36;20.30;99.90
52743;DHT22;55583;53.012;6.556;2023-07-24T08:49:03;20.30;99.90
52743;DHT22;55583;53.012;6.556;2023-07-24T08:51:29;20.50;99.90
52743;DHT22;55583;53.012;6.556;2023-07-24T08:53:56;20.50;99.90
52743;DHT22;55583;53.012;6.556;2023-07-24T08:56:22;20.60;99.90
52743;DHT22;55583;53.012;6.556;2023-07-24T08:58:48;20.60;99.90
52743;DHT22;55583;53.012;6.556;2023-07-24T09:01:13;20.80;99.90
52743;DHT22;55583;53.012;6.556;2023-07-24T09:03:39;20.80;99.90
52743;DHT22;55583;53.012;6.556;2023-07-24T09:06:05;20.90;99.90
52743;DHT22;55583;53.012;6.556;2023-07-24T09:08:39;20.90;99.90
52743;DHT22;55583;53.012;6.556;2023-07-24T09:11:06;21.20;99.90
52743;DHT22;55583;53.012;6.556;2023-07-24T09:13:32;21.40;99.90
52743;DHT22;55583;53.012;6.556;2023-07-24T09:15:58;21.60;99.90
52743;DHT22;55583;53.012;6.556;2023-07-24T09:18:27;22.00;99.90
52743;DHT22;55583;53.012;6.556;2023-07-24T09:21:03;22.10;99.90
52743;DHT22;55583;53.012;6.556;2023-07-24T09:23:30;21.90;99.90
52743;DHT22;55583;53.012;6.556;2023-07-24T09:25:56;21.70;99.90
52743;DHT22;55583;53.012;6.556;2023-07-24T09:28:22;22.30;99.90
52743;DHT22;55583;53.012;6.556;2023-07-24T09:30:55;23.90;99.90
52743;DHT22;55583;53.012;6.556;2023-07-24T09:33:34;25.60;99.90
52743;DHT22;55583;53.012;6.556;2023-07-24T09:36:01;27.20;99.90
52743;DHT22;55583;53.012;6.556;2023-07-24T09:38:27;28.10;97.90
52743;DHT22;55583;53.012;6.556;2023-07-24T09:40:53;28.60;93.30
52743;DHT22;55583;53.012;6.556;2023-07-24T09:43:23;29.20;90.90
52743;DHT22;55583;53.012;6.556;2023-07-24T09:45:50;30.20;88.50
52743;DHT22;55583;53.012;6.556;2023-07-24T09:48:17;31.20;79.70
52743;DHT22;55583;53.012;6.556;2023-07-24T09:50:45;30.90;73.00
52743;DHT22;55583;53.012;6.556;2023-07-24T09:53:20;30.60;80.40
52743;DHT22;55583;53.012;6.556;2023-07-24T09:58:15;31.90;72.20
52743;DHT22;55583;53.012;6.556;2023-07-24T10:00:41;32.50;68.80
52743;DHT22;55583;53.012;6.556;2023-07-24T10:03:08;32.90;66.90
52743;DHT22;55583;53.012;6.556;2023-07-24T10:05:36;33.40;65.60
52743;DHT22;55583;53.012;6.556;2023-07-24T10:08:02;33.60;63.00
52743;DHT22;55583;53.012;6.556;2023-07-24T10:10:28;33.90;61.70
52743;DHT22;55583;53.012;6.556;2023-07-24T10:12:58;34.20;61.90
52743;DHT22;55583;53.012;6.556;2023-07-24T10:15:24;34.20;59.30
52743;DHT22;55583;53.012;6.556;2023-07-24T10:18:04;34.50;59.00
52743;DHT22;55583;53.012;6.556;2023-07-24T10:20:38;34.40;54.90
52743;DHT22;55583;53.012;6.556;2023-07-24T10:23:09;34.30;57.80
52743;DHT22;55583;53.012;6.556;2023-07-24T10:25:37;33.70;58.20
52743;DHT22;55583;53.012;6.556;2023-07-24T10:28:03;32.90;61.10
52743;DHT22;55583;53.012;6.556;2023-07-24T10:30:36;31.70;63.40
52743;DHT22;55583;53.012;6.556;2023-07-24T10:33:32;31.10;66.40
52743;DHT22;55583;53.012;6.556;2023-07-24T10:36:06;30.80;59.80
52743;DHT22;55583;53.012;6.556;2023-07-24T10:38:36;30.20;65.60
52743;DHT22;55583;53.012;6.556;2023-07-24T10:41:03;29.50;69.10
52743;DHT22;55583;53.012;6.556;2023-07-24T10:43:39;28.70;72.50
52743;DHT22;55583;53.012;6.556;2023-07-24T10:46:05;28.60;75.60
52743;DHT22;55583;53.012;6.556;2023-07-24T10:48:30;29.30;70.50
52743;DHT22;55583;53.012;6.556;2023-07-24T10:50:56;30.40;67.00
52743;DHT22;55583;53.012;6.556;2023-07-24T10:53:22;31.00;63.30
52743;DHT22;55583;53.012;6.556;2023-07-24T10:55:49;30.40;63.90
52743;DHT22;55583;53.012;6.556;2023-07-24T10:58:16;29.20;66.50
52743;DHT22;55583;53.012;6.556;2023-07-24T11:00:45;28.10;72.80
52743;DHT22;55583;53.012;6.556;2023-07-24T11:03:13;27.30;76.60
52743;DHT22;55583;53.012;6.556;2023-07-24T11:05:40;26.60;80.10
52743;DHT22;55583;53.012;6.556;2023-07-24T11:08:20;26.20;82.80
52743;DHT22;55583;53.012;6.556;2023-07-24T11:10:50;25.80;80.60
52743;DHT22;55583;53.012;6.556;2023-07-24T11:13:17;25.50;80.80
52743;DHT22;55583;53.012;6.556;2023-07-24T11:15:43;25.30;79.80
52743;DHT22;55583;53.012;6.556;2023-07-24T11:18:09;24.90;78.20
52743;DHT22;55583;53.012;6.556;2023-07-24T11:20:55;24.70;77.80
52743;DHT22;55583;53.012;6.556;2023-07-24T11:23:22;24.70;76.00
52743;DHT22;55583;53.012;6.556;2023-07-24T11:25:51;24.50;77.60
52743;DHT22;55583;53.012;6.556;2023-07-24T11:28:17;24.40;78.30
52743;DHT22;55583;53.012;6.556;2023-07-24T11:30:43;24.30;78.90
52743;DHT22;55583;53.012;6.556;2023-07-24T11:33:14;24.30;80.40
52743;DHT22;55583;53.012;6.556;2023-07-24T11:35:40;24.30;80.60
52743;DHT22;55583;53.012;6.556;2023-07-24T11:38:08;24.40;80.80
52743;DHT22;55583;53.012;6.556;2023-07-24T11:40:39;24.40;81.60
52743;DHT22;55583;53.012;6.556;2023-07-24T11:43:18;24.60;81.40
52743;DHT22;55583;53.012;6.556;2023-07-24T11:45:44;25.10;80.40
52743;DHT22;55583;53.012;6.556;2023-07-24T11:48:11;25.70;80.00
52743;DHT22;55583;53.012;6.556;2023-07-24T11:50:44;26.10;79.00
52743;DHT22;55583;53.012;6.556;2023-07-24T11:53:19;26.60;74.70
52743;DHT22;55583;53.012;6.556;2023-07-24T11:55:46;26.80;76.20
52743;DHT22;55583;53.012;6.556;2023-07-24T11:58:15;26.70;77.60
52743;DHT22;55583;53.012;6.556;2023-07-24T12:00:41;26.40;75.80
52743;DHT22;55583;53.012;6.556;2023-07-24T12:03:07;26.30;77.00
52743;DHT22;55583;53.012;6.556;2023-07-24T12:05:40;26.20;76.40
52743;DHT22;55583;53.012;6.556;2023-07-24T12:08:07;26.10;76.10
52743;DHT22;55583;53.012;6.556;2023-07-24T12:10:36;26.20;75.90
52743;DHT22;55583;53.012;6.556;2023-07-24T12:13:02;26.60;76.20
52743;DHT22;55583;53.012;6.556;2023-07-24T12:15:28;27.50;74.60
52743;DHT22;55583;53.012;6.556;2023-07-24T12:17:54;28.00;72.80
52743;DHT22;55583;53.012;6.556;2023-07-24T12:20:20;28.50;70.50
52743;DHT22;55583;53.012;6.556;2023-07-24T12:22:45;29.10;67.90
52743;DHT22;55583;53.012;6.556;2023-07-24T12:25:12;29.60;65.80
52743;DHT22;55583;53.012;6.556;2023-07-24T12:27:37;30.40;65.30
52743;DHT22;55583;53.012;6.556;2023-07-24T12:30:05;31.20;65.60
52743;DHT22;55583;53.012;6.556;2023-07-24T12:32:31;31.50;62.30
52743;DHT22;55583;53.012;6.556;2023-07-24T12:34:57;31.00;61.30
52743;DHT22;55583;53.012;6.556;2023-07-24T12:37:23;30.10;62.40
52743;DHT22;55583;53.012;6.556;2023-07-24T12:39:49;28.90;62.50
52743;DHT22;55583;53.012;6.556;2023-07-24T12:42:15;27.50;65.10
52743;DHT22;55583;53.012;6.556;2023-07-24T12:44:41;26.50;67.90
52743;DHT22;55583;53.012;6.556;2023-07-24T12:47:08;26.20;69.90
52743;DHT22;55583;53.012;6.556;2023-07-24T12:49:34;26.20;70.30
52743;DHT22;55583;53.012;6.556;2023-07-24T12:51:59;26.60;70.50
52743;DHT22;55583;53.012;6.556;2023-07-24T12:54:25;26.90;70.50
52743;DHT22;55583;53.012;6.556;2023-07-24T12:56:51;26.60;70.80
52743;DHT22;55583;53.012;6.556;2023-07-24T12:59:17;26.70;71.90
52743;DHT22;55583;53.012;6.556;2023-07-24T13:01:44;26.90;71.50
52743;DHT22;55583;53.012;6.556;2023-07-24T13:04:10;27.10;70.50
52743;DHT22;55583;53.012;6.556;2023-07-24T13:06:36;27.10;69.40
52743;DHT22;55583;53.012;6.556;2023-07-24T13:09:02;27.20;69.50
52743;DHT22;55583;53.012;6.556;2023-07-24T13:11:28;27.50;69.60
52743;DHT22;55583;53.012;6.556;2023-07-24T13:13:54;27.60;69.40
52743;DHT22;55583;53.012;6.556;2023-07-24T13:16:20;28.00;70.80
52743;DHT22;55583;53.012;6.556;2023-07-24T13:18:46;27.70;71.10
52743;DHT22;55583;53.012;6.556;2023-07-24T13:21:12;28.20;70.30
52743;DHT22;55583;53.012;6.556;2023-07-24T13:23:39;28.50;69.20
52743;DHT22;55583;53.012;6.556;2023-07-24T13:26:05;28.20;68.60
52743;DHT22;55583;53.012;6.556;2023-07-24T13:28:33;27.60;69.20
52743;DHT22;55583;53.012;6.556;2023-07-24T13:30:58;26.80;70.40
52743;DHT22;55583;53.012;6.556;2023-07-24T13:33:24;26.10;71.80
52743;DHT22;55583;53.012;6.556;2023-07-24T13:35:50;25.50;72.50
52743;DHT22;55583;53.012;6.556;2023-07-24T13:38:18;24.90;73.50
52743;DHT22;55583;53.012;6.556;2023-07-24T13:40:44;24.20;74.90
52743;DHT22;55583;53.012;6.556;2023-07-24T13:43:10;23.70;76.70
52743;DHT22;55583;53.012;6.556;2023-07-24T13:45:36;23.40;79.00
52743;DHT22;55583;53.012;6.556;2023-07-24T13:48:01;23.10;81.30
52743;DHT22;55583;53.012;6.556;2023-07-24T13:50:27;22.80;83.70
52743;DHT22;55583;53.012;6.556;2023-07-24T13:52:53;22.50;87.70
52743;DHT22;55583;53.012;6.556;2023-07-24T13:55:19;22.30;90.80
52743;DHT22;55583;53.012;6.556;2023-07-24T13:57:44;22.20;94.80
52743;DHT22;55583;53.012;6.556;2023-07-24T14:00:10;22.00;97.50
52743;DHT22;55583;53.012;6.556;2023-07-24T14:02:36;21.70;99.90
52743;DHT22;55583;53.012;6.556;2023-07-24T14:05:02;21.60;99.90
52743;DHT22;55583;53.012;6.556;2023-07-24T14:07:28;21.50;99.90
52743;DHT22;55583;53.012;6.556;2023-07-24T14:09:53;21.40;99.90
52743;DHT22;55583;53.012;6.556;2023-07-24T14:12:19;21.30;99.90
52743;DHT22;55583;53.012;6.556;2023-07-24T14:14:44;21.20;99.90
52743;DHT22;55583;53.012;6.556;2023-07-24T14:17:10;21.10;99.90
52743;DHT22;55583;53.012;6.556;2023-07-24T14:19:36;20.90;99.90
52743;DHT22;55583;53.012;6.556;2023-07-24T14:22:02;20.80;99.90
52743;DHT22;55583;53.012;6.556;2023-07-24T14:24:28;20.80;99.90
52743;DHT22;55583;53.012;6.556;2023-07-24T14:26:53;20.80;99.90
52743;DHT22;55583;53.012;6.556;2023-07-24T14:29:19;20.90;99.90
52743;DHT22;55583;53.012;6.556;2023-07-24T14:31:44;20.90;99.90
52743;DHT22;55583;53.012;6.556;2023-07-24T14:34:10;21.10;99.90
52743;DHT22;55583;53.012;6.556;2023-07-24T14:36:38;21.40;99.90
52743;DHT22;55583;53.012;6.556;2023-07-24T14:39:04;21.50;99.90
52743;DHT22;55583;53.012;6.556;2023-07-24T14:41:30;21.50;99.90
52743;DHT22;55583;53.012;6.556;2023-07-24T14:43:56;21.50;99.90
52743;DHT22;55583;53.012;6.556;2023-07-24T14:46:21;21.50;99.90
52743;DHT22;55583;53.012;6.556;2023-07-24T14:48:47;21.40;99.90
52743;DHT22;55583;53.012;6.556;2023-07-24T14:51:13;21.20;99.90
52743;DHT22;55583;53.012;6.556;2023-07-24T14:53:38;21.10;99.90
52743;DHT22;55583;53.012;6.556;2023-07-24T14:56:04;21.10;99.90
52743;DHT22;55583;53.012;6.556;2023-07-24T14:58:30;21.50;99.90
52743;DHT22;55583;53.012;6.556;2023-07-24T15:00:56;21.90;99.90
52743;DHT22;55583;53.012;6.556;2023-07-24T15:03:22;22.30;99.90
52743;DHT22;55583;53.012;6.556;2023-07-24T15:05:48;22.40;99.90
52743;DHT22;55583;53.012;6.556;2023-07-24T15:08:13;22.20;98.70
52743;DHT22;55583;53.012;6.556;2023-07-24T15:10:39;21.90;97.90
52743;DHT22;55583;53.012;6.556;2023-07-24T15:13:05;21.70;98.10
52743;DHT22;55583;53.012;6.556;2023-07-24T15:15:31;21.40;98.00
52743;DHT22;55583;53.012;6.556;2023-07-24T15:17:59;21.30;98.00
52743;DHT22;55583;53.012;6.556;2023-07-24T15:20:25;21.20;98.20
52743;DHT22;55583;53.012;6.556;2023-07-24T15:22:50;21.20;97.90
52743;DHT22;55583;53.012;6.556;2023-07-24T15:25:19;21.10;97.70
52743;DHT22;55583;53.012;6.556;2023-07-24T15:27:45;21.00;97.50
52743;DHT22;55583;53.012;6.556;2023-07-24T15:30:10;20.90;97.50